Time;durP1;ratioP1;P1;durP2;ratioP2;P2;SDS_P1;SDS_P2;PMS_P1;PMS_P2;Temp;Humidity;BMP_temperature;BMP_pressure;BME280_temperature;BME280_humidity;BME280_pressure;Samples;Min_cycle;Max_cycle;Signal;HPM_P1;HPM_P2
2024/01/25 00:01:53;;;;;;;19.92;4.05;;;;;;;6.81;nan;102360.41;10312317;28;20034;-78
2024/01/25 00:06:54;;;;;;;29.52;8.65;;;;;;;6.83;nan;102358.34;10300924;28;20410;-77
2024/01/25 00:11:54;;;;;;;28.48;6.57;;;;;;;6.75;nan;102375.72;10308139;28;20042;-79
2024/01/25 00:16:55;;;;;;;29.02;5.07;;;;;;;6.79;nan;102378.94;10315250;28;20054;-77
2024/01/25 00:21:55;;;;;;;27.17;6.45;;;;;;;6.82;nan;102384.00;10305998;28;20043;-77
2024/01/25 00:26:56;;;;;;;28.42;6.28;;;;;;;6.85;nan;102368.06;10301758;28;20046;-76
2024/01/25 00:31:57;;;;;;;29.02;4.80;;;;;;;6.83;nan;102350.13;10315687;28;20046;-73
2024/01/25 00:36:58;;;;;;;27.80;5.13;;;;;;;6.57;nan;102326.88;10299030;28;20057;-74
2024/01/25 00:42:05;;;;;;;30.35;5.53;;;;;;;6.57;nan;102356.97;10294958;28;20035;-78
2024/01/25 00:47:06;;;;;;;36.20;6.53;;;;;;;6.37;nan;102353.16;10292842;28;20126;-78
2024/01/25 00:52:07;;;;;;;30.52;6.40;;;;;;;6.31;nan;102370.31;10301108;28;20038;-77
2024/01/25 00:57:08;;;;;;;27.95;5.43;;;;;;;6.23;nan;102358.44;10312751;28;20364;-78
2024/01/25 01:02:11;;;;;;;33.35;6.65;;;;;;;6.14;nan;102359.56;10294092;28;20047;-78
2024/01/25 01:07:12;;;;;;;35.65;4.78;;;;;;;6.17;nan;102392.00;10299945;28;20522;-78
2024/01/25 01:12:13;;;;;;;24.70;4.85;;;;;;;6.10;nan;102391.06;10318937;28;20487;-77
2024/01/25 01:17:15;;;;;;;25.45;5.40;;;;;;;6.05;nan;102404.44;10315759;28;20042;-78
2024/01/25 01:22:15;;;;;;;25.73;4.68;;;;;;;6.02;nan;102415.75;10307637;28;20055;-78
2024/01/25 01:27:16;;;;;;;33.03;6.82;;;;;;;5.95;nan;102422.97;10271468;28;20139;-78
2024/01/25 01:32:16;;;;;;;26.42;4.68;;;;;;;5.85;nan;102410.41;10305453;28;20047;-78
2024/01/25 01:37:17;;;;;;;37.80;6.60;;;;;;;5.76;nan;102414.25;10311571;28;20062;-78
2024/01/25 01:42:17;;;;;;;31.40;5.32;;;;;;;5.80;nan;102425.66;10294826;28;20398;-79
2024/01/25 01:47:18;;;;;;;35.88;7.82;;;;;;;5.73;nan;102421.97;10315351;28;20038;-78
2024/01/25 01:52:18;;;;;;;27.02;4.63;;;;;;;5.73;nan;102417.34;10319752;28;20054;-77
2024/01/25 01:57:19;;;;;;;37.95;6.80;;;;;;;5.63;nan;102423.06;10314551;28;20054;-78
2024/01/25 02:02:19;;;;;;;38.00;5.18;;;;;;;5.63;nan;102424.97;10276257;28;20113;-78
2024/01/25 02:07:19;;;;;;;31.98;6.72;;;;;;;5.64;nan;102445.75;10323792;28;20057;-79
2024/01/25 02:12:20;;;;;;;34.15;5.50;;;;;;;5.60;nan;102448.03;10327460;28;20043;-77
2024/01/25 02:17:20;;;;;;;30.55;5.93;;;;;;;5.12;nan;102390.00;10321256;28;20057;-79
2024/01/25 02:22:21;;;;;;;41.97;7.32;;;;;;;5.53;nan;102477.09;10321318;28;20062;-78
2024/01/25 02:27:21;;;;;;;40.67;9.30;;;;;;;5.50;nan;102472.03;10320075;28;20047;-80
2024/01/25 02:32:22;;;;;;;26.00;4.95;;;;;;;5.45;nan;102472.53;10321417;28;20065;-78
2024/01/25 02:37:22;;;;;;;30.90;4.60;;;;;;;5.46;nan;102493.38;10303478;28;20526;-79
2024/01/25 02:42:23;;;;;;;28.77;4.47;;;;;;;5.38;nan;102490.69;10309719;28;20423;-79
2024/01/25 02:47:23;;;;;;;42.08;8.45;;;;;;;5.36;nan;102491.91;10301091;28;20514;-79
2024/01/25 02:52:24;;;;;;;26.75;4.57;;;;;;;5.28;nan;102473.69;10319411;28;20066;-79
2024/01/25 02:57:25;;;;;;;28.98;5.72;;;;;;;5.29;nan;102486.28;10295427;28;20427;-80
2024/01/25 03:02:25;;;;;;;30.38;5.65;;;;;;;5.20;nan;102501.03;10309502;28;20090;-79
2024/01/25 03:07:26;;;;;;;35.78;6.95;;;;;;;5.11;nan;102500.22;10317212;28;20031;-79
2024/01/25 03:12:26;;;;;;;39.92;5.95;;;;;;;5.12;nan;102512.00;10322783;28;20038;-78
2024/01/25 03:17:27;;;;;;;30.40;5.57;;;;;;;4.76;nan;102469.69;10306977;28;20046;-78
2024/01/25 03:22:27;;;;;;;26.17;5.43;;;;;;;5.08;nan;102516.09;10321613;28;20487;-79
2024/01/25 03:27:28;;;;;;;47.83;6.88;;;;;;;5.03;nan;102525.69;10316211;28;20039;-79
2024/01/25 03:32:28;;;;;;;37.55;5.60;;;;;;;4.94;nan;102507.66;10312757;28;20108;-79
2024/01/25 03:37:28;;;;;;;31.60;8.30;;;;;;;5.02;nan;102532.19;10302143;28;20062;-79
2024/01/25 03:42:29;;;;;;;43.42;7.20;;;;;;;4.93;nan;102518.75;10310529;28;20038;-79
2024/01/25 03:47:29;;;;;;;30.45;6.55;;;;;;;4.91;nan;102532.56;10315294;28;20079;-80
2024/01/25 03:52:30;;;;;;;38.22;4.97;;;;;;;4.86;nan;102543.16;10300077;28;20038;-80
2024/01/25 03:57:30;;;;;;;36.03;5.80;;;;;;;4.79;nan;102532.06;10299528;28;20070;-79
2024/01/25 04:02:31;;;;;;;38.05;7.50;;;;;;;4.79;nan;102531.22;10303576;28;20044;-79
2024/01/25 04:07:31;;;;;;;45.50;6.97;;;;;;;4.70;nan;102524.09;10298401;28;20030;-79
2024/01/25 04:12:33;;;;;;;41.15;6.53;;;;;;;4.61;nan;102515.94;10315518;28;20151;-80
2024/01/25 04:17:33;;;;;;;38.83;7.70;;;;;;;4.71;nan;102534.81;10317696;28;20058;-81
2024/01/25 04:22:35;;;;;;;38.97;7.43;;;;;;;4.76;nan;102545.25;10313587;28;20422;-80
2024/01/25 04:27:38;;;;;;;38.25;6.15;;;;;;;4.68;nan;102553.44;10312454;28;20409;-80
2024/01/25 04:32:40;;;;;;;40.10;7.15;;;;;;;4.61;nan;102553.25;10312122;28;20039;-80
2024/01/25 04:37:40;;;;;;;41.20;6.80;;;;;;;4.63;nan;102549.34;10318143;28;20046;-79
2024/01/25 04:42:41;;;;;;;30.65;5.68;;;;;;;4.47;nan;102546.66;10311597;28;20042;-80
2024/01/25 04:47:41;;;;;;;40.20;8.23;;;;;;;4.38;nan;102547.69;10318165;28;20049;-80
2024/01/25 04:52:42;;;;;;;45.35;8.55;;;;;;;4.38;nan;102554.00;10300528;28;20042;-78
2024/01/25 04:57:43;;;;;;;45.95;8.45;;;;;;;4.35;nan;102570.69;10323679;28;20051;-79
2024/01/25 05:02:44;;;;;;;48.20;8.98;;;;;;;4.34;nan;102569.00;10316892;28;20030;-81
2024/01/25 05:07:44;;;;;;;30.17;5.53;;;;;;;4.28;nan;102585.19;10314202;28;20051;-80
2024/01/25 05:12:45;;;;;;;38.30;5.90;;;;;;;4.25;nan;102587.22;10318276;28;20035;-80
2024/01/25 05:17:45;;;;;;;47.13;6.45;;;;;;;4.23;nan;102574.78;10314182;28;20054;-81
2024/01/25 05:22:46;;;;;;;38.25;7.72;;;;;;;4.15;nan;102575.63;10316005;28;20084;-81
2024/01/25 05:27:46;;;;;;;44.97;8.07;;;;;;;4.14;nan;102582.13;10297144;28;20042;-81
2024/01/25 05:32:49;;;;;;;31.30;5.85;;;;;;;4.10;nan;102605.28;10317590;28;20050;-81
2024/01/25 05:37:49;;;;;;;38.28;6.38;;;;;;;3.99;nan;102602.88;10319272;28;20066;-81
2024/01/25 05:42:50;;;;;;;48.13;7.15;;;;;;;3.93;nan;102600.84;10335353;28;20085;-82
2024/01/25 05:47:50;;;;;;;44.05;8.13;;;;;;;3.91;nan;102600.16;10319608;28;20038;-81
2024/01/25 05:52:51;;;;;;;48.05;9.43;;;;;;;3.82;nan;102608.31;10301986;28;20062;-81
2024/01/25 05:57:51;;;;;;;38.83;7.90;;;;;;;3.76;nan;102619.88;10321592;28;20064;-82
2024/01/25 06:02:52;;;;;;;41.17;7.78;;;;;;;3.70;nan;102619.66;10313849;28;20038;-80
2024/01/25 06:07:52;;;;;;;50.42;9.90;;;;;;;3.77;nan;102624.31;10316406;28;20035;-81
2024/01/25 06:12:53;;;;;;;51.40;9.88;;;;;;;3.48;nan;102581.16;10320051;28;20573;-81
2024/01/25 06:17:53;;;;;;;50.38;11.13;;;;;;;3.62;nan;102621.38;10307474;28;20608;-81
2024/01/25 06:22:53;;;;;;;40.63;7.15;;;;;;;3.61;nan;102627.81;10336627;28;20074;-81
2024/01/25 06:27:54;;;;;;;47.92;9.35;;;;;;;3.47;nan;102603.09;10320153;28;20035;-82
2024/01/25 06:32:55;;;;;;;51.78;9.23;;;;;;;3.52;nan;102630.69;10311074;28;20050;-81
2024/01/25 06:37:55;;;;;;;44.15;8.23;;;;;;;3.42;nan;102612.59;10285523;28;20042;-81
2024/01/25 06:42:55;;;;;;;43.78;9.45;;;;;;;3.44;nan;102621.47;10319863;28;20073;-81
2024/01/25 06:47:56;;;;;;;37.20;9.02;;;;;;;3.48;nan;102634.75;10318376;28;20034;-81
2024/01/25 06:52:56;;;;;;;57.92;10.10;;;;;;;3.40;nan;102619.25;10305157;28;20043;-81
2024/01/25 06:57:57;;;;;;;37.33;7.60;;;;;;;3.46;nan;102625.91;10288793;28;20034;-81
2024/01/25 07:02:58;;;;;;;47.95;8.82;;;;;;;3.46;nan;102623.19;10315169;28;20042;-81
2024/01/25 07:07:58;;;;;;;39.55;7.57;;;;;;;3.42;nan;102617.22;10323850;28;20042;-80
2024/01/25 07:12:59;;;;;;;45.25;9.10;;;;;;;3.44;nan;102635.06;10282138;28;20053;-81
2024/01/25 07:17:59;;;;;;;36.08;9.85;;;;;;;3.25;nan;102605.41;10312638;28;20043;-74
2024/01/25 07:23:00;;;;;;;52.08;10.93;;;;;;;3.38;nan;102641.19;10303916;28;21218;-81
2024/01/25 07:28:00;;;;;;;44.88;7.93;;;;;;;3.39;nan;102652.91;10305035;28;20038;-82
2024/01/25 07:33:01;;;;;;;42.85;7.53;;;;;;;3.33;nan;102643.56;10316428;28;20090;-81
2024/01/25 07:38:02;;;;;;;51.10;9.90;;;;;;;3.34;nan;102636.22;10318542;28;20050;-81
2024/01/25 07:43:02;;;;;;;56.60;9.00;;;;;;;3.39;nan;102640.19;10318307;28;20047;-81
2024/01/25 07:48:03;;;;;;;41.65;9.85;;;;;;;3.48;nan;102638.34;10314036;28;20035;-81
2024/01/25 07:53:04;;;;;;;51.42;9.77;;;;;;;3.53;nan;102655.03;10303492;28;20042;-80
2024/01/25 07:58:04;;;;;;;39.30;7.63;;;;;;;3.54;nan;102647.72;10301805;28;20039;-81
2024/01/25 08:03:05;;;;;;;40.33;8.45;;;;;;;3.63;nan;102657.63;10318599;28;20409;-81
2024/01/25 08:08:06;;;;;;;52.83;13.90;;;;;;;3.69;nan;102651.50;10297134;28;20499;-80
2024/01/25 08:13:06;;;;;;;64.90;10.65;;;;;;;3.69;nan;102656.97;10319089;28;20044;-81
2024/01/25 08:18:06;;;;;;;53.35;9.68;;;;;;;3.69;nan;102658.84;10302872;28;20517;-81
2024/01/25 08:23:08;;;;;;;40.70;8.23;;;;;;;3.79;nan;102673.19;10310593;28;20090;-81
2024/01/25 08:28:09;;;;;;;56.05;9.88;;;;;;;3.78;nan;102672.34;10310607;28;20035;-80
2024/01/25 08:33:10;;;;;;;56.42;9.45;;;;;;;3.82;nan;102679.16;10316898;28;20046;-80
2024/01/25 08:38:10;;;;;;;50.13;8.75;;;;;;;3.89;nan;102678.50;10313125;28;20086;-79
2024/01/25 08:43:11;;;;;;;46.25;7.80;;;;;;;3.87;nan;102680.53;10308022;28;20222;-81
2024/01/25 08:48:13;;;;;;;44.35;7.50;;;;;;;4.00;nan;102708.16;10317097;28;20061;-80
2024/01/25 08:53:13;;;;;;;47.38;9.52;;;;;;;4.00;nan;102695.38;10314695;28;20039;-79
2024/01/25 08:58:14;;;;;;;49.08;8.70;;;;;;;4.15;nan;102713.81;10311541;28;20107;-80
2024/01/25 09:03:15;;;;;;;55.03;10.93;;;;;;;4.21;nan;102705.81;10309196;28;20046;-80
2024/01/25 09:08:15;;;;;;;54.40;11.18;;;;;;;4.21;nan;102694.91;10317502;28;20189;-75
2024/01/25 09:13:16;;;;;;;52.83;8.50;;;;;;;4.35;nan;102695.28;10300030;28;20039;-80
2024/01/25 09:18:16;;;;;;;40.47;10.00;;;;;;;4.46;nan;102686.75;10322739;28;20034;-81
2024/01/25 09:23:17;;;;;;;36.35;6.95;;;;;;;4.49;nan;102696.50;10309859;28;20138;-78
2024/01/25 09:28:17;;;;;;;49.42;8.32;;;;;;;4.58;nan;102690.84;10300358;28;20530;-80
2024/01/25 09:33:18;;;;;;;49.63;8.95;;;;;;;4.61;nan;102695.13;10301769;28;20090;-80
2024/01/25 09:38:18;;;;;;;47.47;9.30;;;;;;;4.57;nan;102686.44;10290856;28;20051;-80
2024/01/25 09:43:20;;;;;;;50.92;8.85;;;;;;;4.74;nan;102722.75;10316217;28;20433;-80
2024/01/25 09:48:20;;;;;;;54.50;8.20;;;;;;;4.90;nan;102719.19;10332661;28;20038;-80
2024/01/25 09:53:22;;;;;;;40.45;8.70;;;;;;;4.99;nan;102720.88;10308022;28;20038;-79
2024/01/25 09:58:22;;;;;;;36.75;9.85;;;;;;;4.99;nan;102712.69;10305254;28;20054;-81
2024/01/25 10:03:23;;;;;;;50.08;8.85;;;;;;;5.16;nan;102716.25;10296944;28;20030;-75
2024/01/25 10:08:24;;;;;;;43.47;9.27;;;;;;;5.24;nan;102723.56;10318361;28;20054;-79
2024/01/25 10:13:25;;;;;;;53.72;8.95;;;;;;;5.32;nan;102726.28;10307435;28;20055;-79
2024/01/25 10:18:26;;;;;;;31.55;7.32;;;;;;;5.37;nan;102707.47;10282412;28;20043;-80
2024/01/25 10:23:26;;;;;;;42.00;11.13;;;;;;;5.51;nan;102721.47;10297798;28;20046;-79
2024/01/25 10:28:28;;;;;;;42.50;7.88;;;;;;;5.41;nan;102717.03;10265723;28;20487;-79
2024/01/25 10:33:29;;;;;;;40.03;8.85;;;;;;;5.55;nan;102710.00;10294948;28;20102;-79
2024/01/25 10:38:37;;;;;;;29.17;6.90;;;;;;;5.89;nan;102718.91;10320580;28;20490;-78
2024/01/25 10:43:37;;;;;;;41.90;7.63;;;;;;;6.05;nan;102699.72;10297916;28;20046;-78
2024/01/25 10:48:38;;;;;;;45.28;8.30;;;;;;;6.07;nan;102697.66;10275485;28;20038;-78
2024/01/25 10:53:38;;;;;;;31.27;6.97;;;;;;;5.99;nan;102684.88;10311788;28;21316;-79
2024/01/25 10:58:41;;;;;;;40.33;9.30;;;;;;;6.05;nan;102697.00;10314133;28;20047;-79
2024/01/25 11:03:41;;;;;;;45.65;9.18;;;;;;;5.99;nan;102673.09;10310574;28;20404;-79
2024/01/25 11:08:42;;;;;;;51.25;8.35;;;;;;;6.01;nan;102677.34;10301240;28;20039;-79
2024/01/25 11:13:42;;;;;;;42.72;8.27;;;;;;;6.10;nan;102675.44;10303058;28;20046;-78
2024/01/25 11:18:49;;;;;;;44.83;9.43;;;;;;;6.46;nan;102669.38;10310945;28;20102;-79
2024/01/25 11:24:02;;;;;;;36.10;8.80;;;;;;;6.63;nan;102654.50;10308295;28;20049;-79
2024/01/25 11:29:02;;;;;;;35.63;8.43;;;;;;;6.94;nan;102666.38;10317285;28;20089;-79
2024/01/25 11:34:02;;;;;;;37.33;9.63;;;;;;;6.96;nan;102673.38;10318131;28;20038;-78
2024/01/25 11:39:03;;;;;;;34.63;7.03;;;;;;;7.03;nan;102666.13;10300338;28;20074;-79
2024/01/25 11:44:04;;;;;;;25.13;7.70;;;;;;;6.82;nan;102658.63;10304444;28;20035;-79
2024/01/25 11:49:04;;;;;;;29.77;7.15;;;;;;;7.02;nan;102642.50;10303169;28;20065;-79
2024/01/25 11:54:06;;;;;;;49.97;8.05;;;;;;;7.28;nan;102635.72;10273267;28;20435;-79
2024/01/25 11:59:08;;;;;;;30.80;5.35;;;;;;;7.83;nan;102642.56;10269384;28;20517;-80
2024/01/25 12:04:09;;;;;;;37.78;8.70;;;;;;;8.02;nan;102632.88;10298391;28;20051;-80
2024/01/25 12:09:10;;;;;;;36.05;8.02;;;;;;;7.58;nan;102619.25;10286872;28;20042;-80
2024/01/25 12:14:10;;;;;;;33.38;7.53;;;;;;;7.45;nan;102622.69;10292873;28;20038;-80
2024/01/25 12:19:11;;;;;;;38.35;6.90;;;;;;;7.39;nan;102631.66;10294749;28;20093;-80
2024/01/25 12:24:11;;;;;;;34.25;7.03;;;;;;;7.31;nan;102646.28;10295747;28;20049;-75
2024/01/25 12:29:12;;;;;;;31.55;5.95;;;;;;;7.26;nan;102637.81;10303536;28;20043;-79
2024/01/25 12:34:15;;;;;;;37.47;6.90;;;;;;;7.17;nan;102633.44;10321554;28;20111;-80
2024/01/25 12:39:16;;;;;;;33.38;7.90;;;;;;;7.37;nan;102640.06;10311138;28;20570;-80
2024/01/25 12:44:16;;;;;;;32.63;7.35;;;;;;;7.29;nan;102626.47;10298537;28;20250;-79
2024/01/25 12:49:17;;;;;;;27.05;5.65;;;;;;;7.33;nan;102641.47;10298590;28;20054;-79
2024/01/25 12:54:18;;;;;;;43.13;7.97;;;;;;;7.44;nan;102624.56;10289186;28;20054;-79
2024/01/25 12:59:18;;;;;;;33.28;6.55;;;;;;;7.98;nan;102641.66;10292123;28;20078;-79
2024/01/25 13:04:20;;;;;;;36.65;8.10;;;;;;;8.39;nan;102621.81;10313930;28;20126;-79
2024/01/25 13:09:22;;;;;;;27.95;6.00;;;;;;;8.93;nan;102618.50;10309265;28;20043;-78
2024/01/25 13:14:22;;;;;;;30.40;6.95;;;;;;;8.97;nan;102584.09;10312855;28;20050;-79
2024/01/25 13:19:23;;;;;;;33.20;6.40;;;;;;;9.46;nan;102585.81;10301897;28;20046;-79
2024/01/25 13:24:23;;;;;;;32.42;6.68;;;;;;;9.29;nan;102589.97;10300877;28;20039;-78
2024/01/25 13:29:24;;;;;;;28.63;6.32;;;;;;;9.21;nan;102584.63;10295720;28;20113;-73
2024/01/25 13:34:24;;;;;;;28.52;4.85;;;;;;;9.01;nan;102582.63;10294735;28;20138;-79
2024/01/25 13:39:25;;;;;;;35.33;5.22;;;;;;;8.85;nan;102577.47;10301448;28;20423;-80
2024/01/25 13:44:26;;;;;;;29.50;5.63;;;;;;;8.42;nan;102558.34;10296070;28;20173;-79
2024/01/25 13:49:26;;;;;;;26.35;4.70;;;;;;;7.91;nan;102552.97;10301992;28;20057;-79
2024/01/25 13:54:27;;;;;;;24.92;6.50;;;;;;;7.86;nan;102570.03;10297543;28;20039;-78
2024/01/25 13:59:27;;;;;;;37.10;6.28;;;;;;;7.92;nan;102566.50;10294282;28;20049;-79
2024/01/25 14:04:28;;;;;;;25.60;6.95;;;;;;;8.13;nan;102554.69;10311594;28;20045;-79
2024/01/25 14:09:29;;;;;;;22.92;3.65;;;;;;;8.52;nan;102567.06;10322019;28;20054;-79
2024/01/25 14:14:29;;;;;;;26.77;5.47;;;;;;;8.89;nan;102551.28;10319841;28;20044;-78
2024/01/25 14:19:30;;;;;;;24.23;5.57;;;;;;;8.88;nan;102546.81;10296790;28;20057;-79
2024/01/25 14:24:30;;;;;;;28.85;6.72;;;;;;;8.78;nan;102563.66;10318476;28;20123;-78
2024/01/25 14:29:33;;;;;;;26.85;6.10;;;;;;;8.38;nan;102540.53;10323604;28;20030;-79
2024/01/25 14:34:34;;;;;;;30.17;6.90;;;;;;;8.54;nan;102544.91;10319920;28;20039;-79
2024/01/25 14:39:36;;;;;;;23.65;5.03;;;;;;;8.64;nan;102538.03;10321147;28;20038;-79
2024/01/25 14:44:46;;;;;;;27.05;5.70;;;;;;;8.42;nan;102484.22;10316821;28;20043;-78
2024/01/25 14:49:47;;;;;;;24.08;5.00;;;;;;;8.37;nan;102536.09;10312322;28;20065;-78
2024/01/25 14:54:47;;;;;;;20.50;4.60;;;;;;;8.03;nan;102523.97;10315228;28;20070;-79
2024/01/25 14:59:48;;;;;;;34.92;8.10;;;;;;;7.66;nan;102523.19;10322133;28;20031;-78
2024/01/25 15:04:48;;;;;;;25.48;6.68;;;;;;;7.31;nan;102516.69;10308562;28;20039;-79
2024/01/25 15:09:49;;;;;;;27.90;6.20;;;;;;;6.98;nan;102509.72;10320401;28;20038;-77
2024/01/25 15:14:49;;;;;;;32.85;7.13;;;;;;;6.74;nan;102531.91;10316535;28;20363;-79
2024/01/25 15:19:50;;;;;;;27.98;7.00;;;;;;;6.56;nan;102533.16;10318152;28;20049;-78
2024/01/25 15:24:50;;;;;;;29.05;5.10;;;;;;;6.45;nan;102526.25;10320385;28;20062;-78
2024/01/25 15:29:51;;;;;;;21.05;5.00;;;;;;;6.30;nan;102530.00;10317920;28;20066;-78
2024/01/25 15:34:51;;;;;;;25.52;5.20;;;;;;;6.07;nan;102511.72;10300240;28;20442;-78
2024/01/25 15:39:52;;;;;;;25.10;5.53;;;;;;;5.80;nan;102513.13;10319679;28;20507;-78
2024/01/25 15:44:52;;;;;;;27.48;5.82;;;;;;;5.59;nan;102497.41;10316977;28;20047;-78
2024/01/25 15:49:53;;;;;;;24.77;6.72;;;;;;;5.24;nan;102469.63;10313207;28;20557;-78
2024/01/25 15:54:53;;;;;;;29.40;8.48;;;;;;;5.22;nan;102486.16;10303758;28;20051;-78
2024/01/25 15:59:54;;;;;;;34.25;7.63;;;;;;;5.13;nan;102495.44;10319556;28;20045;-78
2024/01/25 16:04:54;;;;;;;33.17;6.00;;;;;;;5.03;nan;102487.47;10313161;28;20042;-80
2024/01/25 16:09:55;;;;;;;29.45;6.32;;;;;;;4.94;nan;102472.16;10312428;28;20046;-79
2024/01/25 16:14:56;;;;;;;31.80;8.63;;;;;;;4.92;nan;102463.31;10284868;28;20046;-80
2024/01/25 16:19:56;;;;;;;38.55;8.20;;;;;;;5.10;nan;102475.84;10298496;28;20050;-86
2024/01/25 16:24:57;;;;;;;25.95;5.95;;;;;;;5.14;nan;102475.28;10291114;28;20062;-86
2024/01/25 16:29:57;;;;;;;26.60;7.43;;;;;;;5.20;nan;102469.13;10287200;28;20073;-86
2024/01/25 16:34:58;;;;;;;30.83;8.32;;;;;;;5.21;nan;102459.06;10301839;28;20046;-87
2024/01/25 16:39:58;;;;;;;26.83;7.22;;;;;;;5.29;nan;102469.91;10300215;28;20050;-86
2024/01/25 16:44:59;;;;;;;27.63;7.45;;;;;;;5.34;nan;102472.97;10290698;28;20039;-86
2024/01/25 16:49:59;;;;;;;25.90;7.50;;;;;;;5.40;nan;102466.78;10279339;28;20046;-86
2024/01/25 16:55:00;;;;;;;32.05;6.82;;;;;;;5.41;nan;102454.81;10305001;28;20087;-85
2024/01/25 17:00:00;;;;;;;29.15;7.68;;;;;;;5.52;nan;102452.69;10289871;28;20123;-75
2024/01/25 17:05:01;;;;;;;30.85;8.77;;;;;;;5.58;nan;102458.31;10299203;28;21233;-85
2024/01/25 17:10:02;;;;;;;25.95;6.50;;;;;;;5.61;nan;102460.66;10283472;28;20047;-86
2024/01/25 17:15:02;;;;;;;29.75;7.82;;;;;;;5.64;nan;102448.50;10298453;28;20035;-85
2024/01/25 17:20:03;;;;;;;30.30;6.47;;;;;;;5.69;nan;102437.88;10291622;28;20054;-85
2024/01/25 17:25:04;;;;;;;33.17;8.13;;;;;;;5.75;nan;102442.63;10283128;28;20042;-86
2024/01/25 17:30:05;;;;;;;35.33;8.02;;;;;;;5.39;nan;102380.41;10302674;28;20031;-87
2024/01/25 17:35:06;;;;;;;32.65;6.63;;;;;;;5.82;nan;102449.03;10318588;28;20046;-86
2024/01/25 17:40:06;;;;;;;28.33;6.32;;;;;;;5.83;nan;102434.34;10301934;28;20106;-84
2024/01/25 17:45:08;;;;;;;35.15;9.45;;;;;;;5.83;nan;102431.63;10307978;28;20125;-86
2024/01/25 17:50:09;;;;;;;36.17;8.93;;;;;;;5.86;nan;102427.66;10320197;28;20034;-87
2024/01/25 17:55:09;;;;;;;32.63;6.95;;;;;;;5.92;nan;102426.06;10305254;28;20038;-87
2024/01/25 18:00:10;;;;;;;26.73;6.68;;;;;;;5.92;nan;102431.53;10295136;28;20108;-81
2024/01/25 18:05:11;;;;;;;26.63;5.88;;;;;;;5.91;nan;102424.34;10304543;28;20046;-78
2024/01/25 18:10:11;;;;;;;36.25;6.65;;;;;;;5.58;nan;102362.69;10319613;28;20053;-86
2024/01/25 18:15:13;;;;;;;37.00;7.68;;;;;;;5.87;nan;102421.16;10317475;28;20081;-86
2024/01/25 18:20:13;;;;;;;35.58;9.50;;;;;;;5.78;nan;102408.59;10321677;28;20053;-86
2024/01/25 18:25:14;;;;;;;33.55;8.30;;;;;;;5.45;nan;102359.69;10315370;28;20043;-86
2024/01/25 18:30:15;;;;;;;36.78;7.43;;;;;;;5.02;nan;102297.44;10302256;28;20790;-86
2024/01/25 18:35:16;;;;;;;37.13;9.13;;;;;;;5.64;nan;102385.66;10319027;28;20043;-85
2024/01/25 18:40:17;;;;;;;39.13;7.78;;;;;;;5.66;nan;102389.94;10316489;28;20038;-86
2024/01/25 18:45:17;;;;;;;35.30;6.72;;;;;;;5.75;nan;102393.44;10313539;28;20050;-86
2024/01/25 18:50:18;;;;;;;36.60;8.32;;;;;;;5.70;nan;102390.38;10299640;28;20043;-88
2024/01/25 18:55:21;;;;;;;44.25;10.70;;;;;;;5.72;nan;102393.78;10312231;28;20050;-88
2024/01/25 19:00:22;;;;;;;41.35;10.05;;;;;;;5.72;nan;102382.84;10310973;28;20038;-88
2024/01/25 19:05:23;;;;;;;51.88;12.85;;;;;;;5.71;nan;102383.91;10315571;28;20521;-88
2024/01/25 19:10:24;;;;;;;37.17;11.82;;;;;;;5.69;nan;102382.41;10324806;28;20064;-89
2024/01/25 19:15:24;;;;;;;45.33;12.35;;;;;;;5.66;nan;102379.00;10311308;28;20046;-88
2024/01/25 19:20:25;;;;;;;59.60;14.80;;;;;;;5.60;nan;102365.19;10290725;28;20035;-82
2024/01/25 19:25:25;;;;;;;58.72;16.35;;;;;;;5.60;nan;102362.47;10319693;28;20069;-87
2024/01/25 19:30:26;;;;;;;49.42;15.70;;;;;;;5.59;nan;102336.19;10298148;28;20046;-88
2024/01/25 19:35:27;;;;;;;64.88;17.73;;;;;;;5.57;nan;102319.97;10318793;28;20043;-89
2024/01/25 19:40:28;;;;;;;67.22;18.90;;;;;;;5.57;nan;102316.41;10317033;28;20129;-88
2024/01/25 19:45:29;;;;;;;68.47;19.73;;;;;;;5.56;nan;102318.31;10318312;28;20046;-87
2024/01/25 19:50:29;;;;;;;68.15;20.17;;;;;;;5.27;nan;102264.44;10319086;28;20370;-86
2024/01/25 19:55:30;;;;;;;58.50;18.65;;;;;;;5.54;nan;102294.91;10270485;28;20062;-85
2024/01/25 20:00:33;;;;;;;70.15;20.50;;;;;;;5.57;nan;102291.81;10316218;28;20050;-88
2024/01/25 20:05:34;;;;;;;62.28;21.95;;;;;;;5.53;nan;102271.38;10307927;28;20041;-88
2024/01/25 20:10:35;;;;;;;80.13;25.30;;;;;;;5.54;nan;102256.66;10298401;28;20039;-88
2024/01/25 20:15:35;;;;;;;78.88;23.33;;;;;;;5.65;nan;102272.63;10314607;28;20043;-87
2024/01/25 20:20:36;;;;;;;68.72;24.20;;;;;;;5.65;nan;102283.53;10316761;28;20039;-87
2024/01/25 20:25:36;;;;;;;75.38;24.70;;;;;;;5.66;nan;102257.91;10285454;28;20038;-88
2024/01/25 20:30:38;;;;;;;77.05;25.67;;;;;;;5.42;nan;102218.06;10294176;28;20043;-80
2024/01/25 20:35:39;;;;;;;78.15;28.20;;;;;;;5.73;nan;102256.13;10301587;28;20035;-88
2024/01/25 20:40:39;;;;;;;75.20;28.88;;;;;;;5.69;nan;102224.75;10305631;28;20054;-86
2024/01/25 20:45:40;;;;;;;89.03;30.67;;;;;;;5.63;nan;102206.38;10297704;28;20049;-87
2024/01/25 20:50:40;;;;;;;86.68;32.75;;;;;;;5.29;nan;102144.94;10305934;28;20102;-87
2024/01/25 20:55:41;;;;;;;97.20;29.65;;;;;;;5.75;nan;102215.78;10311244;28;20038;-88
2024/01/25 21:00:41;;;;;;;110.82;33.15;;;;;;;5.71;nan;102206.28;10275774;28;20065;-87
2024/01/25 21:05:42;;;;;;;113.38;34.22;;;;;;;5.74;nan;102203.16;10316053;28;20062;-84
2024/01/25 21:10:44;;;;;;;100.88;33.83;;;;;;;5.80;nan;102210.59;10310395;28;20551;-87
2024/01/25 21:15:44;;;;;;;107.85;36.40;;;;;;;5.84;nan;102202.88;10320479;28;20066;-87
2024/01/25 21:20:45;;;;;;;124.07;38.40;;;;;;;5.74;nan;102177.72;10321901;28;20062;-86
2024/01/25 21:25:46;;;;;;;122.30;36.28;;;;;;;5.85;nan;102186.28;10314456;28;20038;-86
2024/01/25 21:30:46;;;;;;;146.20;39.03;;;;;;;5.91;nan;102189.28;10331966;28;20058;-83
2024/01/25 21:35:46;;;;;;;134.23;41.47;;;;;;;5.92;nan;102186.38;10324184;28;20061;-87
2024/01/25 21:40:47;;;;;;;133.23;41.08;;;;;;;5.93;nan;102176.28;10317828;28;20038;-88
2024/01/25 21:45:47;;;;;;;133.18;40.80;;;;;;;5.97;nan;102180.34;10321270;28;20473;-88
2024/01/25 21:50:48;;;;;;;146.77;43.15;;;;;;;5.97;nan;102175.72;10298350;28;20034;-86
2024/01/25 21:55:48;;;;;;;149.60;42.47;;;;;;;5.70;nan;102121.75;10318983;28;20070;-87
2024/01/25 22:00:49;;;;;;;144.45;42.50;;;;;;;6.05;nan;102164.69;10314929;28;20039;-88
2024/01/25 22:05:49;;;;;;;151.63;42.95;;;;;;;6.07;nan;102156.28;10319739;28;20038;-89
2024/01/25 22:10:50;;;;;;;136.63;43.55;;;;;;;6.06;nan;102139.03;10300780;28;20030;-89
2024/01/25 22:15:53;;;;;;;144.93;42.15;;;;;;;6.11;nan;102140.34;10306839;28;20423;-81
2024/01/25 22:20:53;;;;;;;132.15;42.05;;;;;;;6.25;nan;102147.66;10315439;28;20525;-87
2024/01/25 22:25:54;;;;;;;128.80;41.95;;;;;;;6.28;nan;102136.31;10302168;28;20037;-88
2024/01/25 22:30:54;;;;;;;112.70;39.63;;;;;;;6.28;nan;102122.63;10320050;28;20065;-87
2024/01/25 22:35:55;;;;;;;124.82;39.70;;;;;;;6.35;nan;102131.78;10299119;28;20658;-87
2024/01/25 22:40:56;;;;;;;93.55;36.92;;;;;;;6.39;nan;102118.56;10298939;28;20419;-84
2024/01/25 22:45:57;;;;;;;106.60;37.95;;;;;;;6.57;nan;102129.00;10303951;28;20117;-88
2024/01/25 22:51:03;;;;;;;96.55;36.25;;;;;;;6.64;nan;102117.09;10314239;28;20102;-88
2024/01/25 22:56:05;;;;;;;85.80;34.55;;;;;;;6.72;nan;102109.75;10306119;28;20458;-86
2024/01/25 23:01:05;;;;;;;85.88;34.08;;;;;;;6.64;nan;102087.00;10292547;28;20046;-86
2024/01/25 23:06:06;;;;;;;81.80;35.58;;;;;;;6.76;nan;102100.97;10312010;28;20518;-87
2024/01/25 23:11:06;;;;;;;81.18;33.10;;;;;;;6.89;nan;102099.38;10307681;28;20530;-88
2024/01/25 23:16:07;;;;;;;70.93;29.55;;;;;;;6.92;nan;102094.34;10311954;28;20411;-87
2024/01/25 23:21:07;;;;;;;81.32;32.60;;;;;;;6.96;nan;102076.47;10305246;28;20487;-87
2024/01/25 23:26:08;;;;;;;75.40;33.03;;;;;;;6.92;nan;102061.47;10322826;28;20573;-87
2024/01/25 23:31:08;;;;;;;71.60;30.13;;;;;;;6.97;nan;102074.59;10320258;28;20042;-86